Time;durP1;ratioP1;P1;durP2;ratioP2;P2;SDS_P1;SDS_P2;PMS_P1;PMS_P2;Temp;Humidity;BMP_temperature;BMP_pressure;BME280_temperature;BME280_humidity;BME280_pressure;Samples;Min_cycle;Max_cycle;Signal;HPM_P1;HPM_P2
2021/05/17 00:01:58;;;;;;;13.60;12.40;;;;;;;;;;5033796;28;20457;-66
2021/05/17 00:04:30;;;;;;;14.17;12.83;;;;;;;;;;5033557;28;20453;-69
2021/05/17 00:06:57;;;;;;;14.37;12.90;;;;;;;;;;5033132;28;20530;-71
2021/05/17 00:09:24;;;;;;;14.90;13.37;;;;;;;;;;5034522;28;20451;-67
2021/05/17 00:11:51;;;;;;;14.37;12.97;;;;;;;;;;5033087;28;20449;-67
2021/05/17 00:14:18;;;;;;;13.93;12.73;;;;;;;;;;5014819;28;20454;-66
2021/05/17 00:16:46;;;;;;;13.60;12.23;;;;;;;;;;5023837;28;20488;-67
2021/05/17 00:19:12;;;;;;;14.13;12.83;;;;;;;;;;5018196;28;20451;-70
2021/05/17 00:21:39;;;;;;;13.20;12.10;;;;;;;;;;5034185;28;20448;-67
2021/05/17 00:24:07;;;;;;;12.30;11.20;;;;;;;;;;5017742;28;20468;-67
2021/05/17 00:26:34;;;;;;;13.13;11.93;;;;;;;;;;5033972;28;20474;-67
2021/05/17 00:29:00;;;;;;;12.50;11.47;;;;;;;;;;5031891;28;20458;-67
2021/05/17 00:31:27;;;;;;;12.87;10.80;;;;;;;;;;5032954;28;20457;-69
2021/05/17 00:33:56;;;;;;;12.00;11.00;;;;;;;;;;5032893;28;20449;-65
2021/05/17 00:36:23;;;;;;;12.60;11.50;;;;;;;;;;5022753;28;20984;-67
2021/05/17 00:38:49;;;;;;;10.73;9.77;;;;;;;;;;5032207;28;20455;-67
2021/05/17 00:41:17;;;;;;;10.90;9.93;;;;;;;;;;5033418;28;20455;-65
2021/05/17 00:43:44;;;;;;;12.40;11.47;;;;;;;;;;5033608;28;20831;-67
2021/05/17 00:46:11;;;;;;;11.03;10.13;;;;;;;;;;5032324;28;20472;-66
2021/05/17 00:48:39;;;;;;;11.30;10.40;;;;;;;;;;5032585;28;21008;-67
2021/05/17 00:51:08;;;;;;;10.90;9.90;;;;;;;;;;5033490;28;20495;-67
2021/05/17 00:53:35;;;;;;;11.07;9.97;;;;;;;;;;5032910;28;20470;-64
2021/05/17 00:56:02;;;;;;;12.40;11.30;;;;;;;;;;5032953;28;20460;-67
2021/05/17 00:58:29;;;;;;;12.30;11.20;;;;;;;;;;5032528;28;20507;-67
2021/05/17 01:00:55;;;;;;;12.10;10.87;;;;;;;;;;5033277;28;20461;-67
2021/05/17 01:03:22;;;;;;;11.27;10.37;;;;;;;;;;5032597;28;20444;-65
2021/05/17 01:05:49;;;;;;;13.07;11.80;;;;;;;;;;5021957;28;20453;-66
2021/05/17 01:08:21;;;;;;;11.80;10.80;;;;;;;;;;5020846;28;20472;-67
2021/05/17 01:10:48;;;;;;;11.43;10.43;;;;;;;;;;5013317;28;20438;-67
2021/05/17 01:13:14;;;;;;;11.50;10.50;;;;;;;;;;5013395;28;20515;-67
2021/05/17 01:15:41;;;;;;;11.90;10.70;;;;;;;;;;5014003;28;20533;-66
2021/05/17 01:18:08;;;;;;;12.23;11.33;;;;;;;;;;5026110;28;20511;-67
2021/05/17 01:20:36;;;;;;;11.60;10.63;;;;;;;;;;5035227;28;20503;-66
2021/05/17 01:23:30;;;;;;;13.13;11.47;;;;;;;;;;5027688;28;20536;-67
2021/05/17 01:25:58;;;;;;;12.57;11.50;;;;;;;;;;5015419;28;20437;-67
2021/05/17 01:28:27;;;;;;;12.87;11.53;;;;;;;;;;5020665;28;20454;-65
2021/05/17 01:30:54;;;;;;;12.30;11.20;;;;;;;;;;5036709;28;20496;-66
2021/05/17 01:33:20;;;;;;;14.27;11.83;;;;;;;;;;5028005;28;20457;-67
2021/05/17 01:35:48;;;;;;;14.40;12.90;;;;;;;;;;5014633;28;20448;-64
2021/05/17 01:38:16;;;;;;;12.93;11.63;;;;;;;;;;5023570;28;20480;-68
2021/05/17 01:40:44;;;;;;;14.03;12.63;;;;;;;;;;5031432;28;20829;-67
2021/05/17 01:43:11;;;;;;;13.67;12.37;;;;;;;;;;5032739;28;20453;-66
2021/05/17 01:45:38;;;;;;;13.53;12.33;;;;;;;;;;5030923;28;20455;-67
2021/05/17 01:48:05;;;;;;;13.07;11.93;;;;;;;;;;5032136;28;20480;-66
2021/05/17 01:50:32;;;;;;;13.13;12.00;;;;;;;;;;5031918;28;20893;-64
2021/05/17 01:52:59;;;;;;;13.37;12.07;;;;;;;;;;5030271;28;20479;-66
2021/05/17 01:55:26;;;;;;;14.60;13.10;;;;;;;;;;5031398;28;20460;-66
2021/05/17 01:58:05;;;;;;;13.10;11.90;;;;;;;;;;5031822;28;20487;-66
2021/05/17 02:00:32;;;;;;;12.97;11.83;;;;;;;;;;5032021;28;20967;-66
2021/05/17 02:02:59;;;;;;;13.43;12.33;;;;;;;;;;5031309;28;20459;-66
2021/05/17 02:05:26;;;;;;;13.07;11.97;;;;;;;;;;5031546;28;20456;-66
2021/05/17 02:07:54;;;;;;;13.77;12.50;;;;;;;;;;5030752;28;20472;-66
2021/05/17 02:10:21;;;;;;;16.27;13.77;;;;;;;;;;5032209;28;20495;-66
2021/05/17 02:12:49;;;;;;;13.00;12.00;;;;;;;;;;5020463;28;20476;-66
2021/05/17 02:15:17;;;;;;;15.10;13.60;;;;;;;;;;5032080;28;20448;-65
2021/05/17 02:17:44;;;;;;;15.00;13.60;;;;;;;;;;5020032;28;20987;-66
2021/05/17 02:20:14;;;;;;;15.33;13.53;;;;;;;;;;5032126;28;20448;-66
2021/05/17 02:22:44;;;;;;;17.10;14.20;;;;;;;;;;5017971;28;20453;-67
2021/05/17 02:25:11;;;;;;;15.10;13.80;;;;;;;;;;5011991;28;20741;-67
2021/05/17 02:27:41;;;;;;;14.93;13.43;;;;;;;;;;5014396;28;21002;-66
2021/05/17 02:30:11;;;;;;;16.40;14.80;;;;;;;;;;5012096;28;20499;-66
2021/05/17 02:32:38;;;;;;;13.83;12.60;;;;;;;;;;5026402;28;20488;-63
2021/05/17 02:35:05;;;;;;;15.97;14.57;;;;;;;;;;5032066;28;20455;-63
2021/05/17 02:37:33;;;;;;;16.57;13.60;;;;;;;;;;5022548;28;20491;-63
2021/05/17 02:40:00;;;;;;;15.67;14.10;;;;;;;;;;5012102;28;20449;-63
2021/05/17 02:42:28;;;;;;;15.90;14.40;;;;;;;;;;5023263;28;20476;-62
2021/05/17 02:44:55;;;;;;;16.43;13.67;;;;;;;;;;5032173;28;20479;-66
2021/05/17 02:47:23;;;;;;;16.03;14.53;;;;;;;;;;5031035;28;20480;-63
2021/05/17 02:49:51;;;;;;;17.13;15.30;;;;;;;;;;5032480;28;20452;-63
2021/05/17 02:52:18;;;;;;;14.10;12.80;;;;;;;;;;5024736;28;20491;-63
2021/05/17 02:54:53;;;;;;;15.60;13.80;;;;;;;;;;5014530;28;20816;-63
2021/05/17 02:57:26;;;;;;;14.37;13.07;;;;;;;;;;5026816;28;20491;-66
2021/05/17 03:00:10;;;;;;;16.23;14.73;;;;;;;;;;5017946;28;20449;-63
2021/05/17 03:02:45;;;;;;;16.93;15.33;;;;;;;;;;5035117;28;20498;-63
2021/05/17 03:05:13;;;;;;;15.00;13.60;;;;;;;;;;5035253;28;20452;-70
2021/05/17 03:07:41;;;;;;;15.50;14.10;;;;;;;;;;5034555;28;20477;-63
2021/05/17 03:10:09;;;;;;;17.17;15.47;;;;;;;;;;5035442;28;20951;-64
2021/05/17 03:12:38;;;;;;;16.77;15.20;;;;;;;;;;5034570;28;20748;-62
2021/05/17 03:15:06;;;;;;;15.40;14.00;;;;;;;;;;5034726;28;20459;-63
2021/05/17 03:17:33;;;;;;;16.57;15.00;;;;;;;;;;5033668;28;20491;-63
2021/05/17 03:20:00;;;;;;;16.80;15.20;;;;;;;;;;5035418;28;20453;-66
2021/05/17 03:22:30;;;;;;;15.17;13.77;;;;;;;;;;5033716;28;20456;-67
2021/05/17 03:24:57;;;;;;;16.37;14.67;;;;;;;;;;5035120;28;20449;-66
2021/05/17 03:27:24;;;;;;;15.70;14.30;;;;;;;;;;5019255;28;20465;-66
2021/05/17 03:29:51;;;;;;;15.33;13.73;;;;;;;;;;5035044;28;20967;-66
2021/05/17 03:32:18;;;;;;;14.87;13.40;;;;;;;;;;5034367;28;20985;-65
2021/05/17 03:34:45;;;;;;;17.30;15.60;;;;;;;;;;5034870;28;20459;-66
2021/05/17 03:37:12;;;;;;;14.60;13.20;;;;;;;;;;5033581;28;20721;-66
2021/05/17 03:39:39;;;;;;;14.50;13.20;;;;;;;;;;5035356;28;20494;-66
2021/05/17 03:42:06;;;;;;;15.73;14.33;;;;;;;;;;5034520;28;20545;-66
2021/05/17 03:44:32;;;;;;;14.70;13.50;;;;;;;;;;5034745;28;20518;-65
2021/05/17 03:46:59;;;;;;;15.63;14.23;;;;;;;;;;5033724;28;20473;-66
2021/05/17 03:49:25;;;;;;;15.00;13.60;;;;;;;;;;5033997;28;20453;-66
2021/05/17 03:51:52;;;;;;;14.87;13.67;;;;;;;;;;5033906;28;20464;-65
2021/05/17 03:54:19;;;;;;;16.60;15.10;;;;;;;;;;5033870;28;20983;-66
2021/05/17 03:56:46;;;;;;;16.87;15.27;;;;;;;;;;5034204;28;20484;-66
2021/05/17 03:59:15;;;;;;;15.90;14.60;;;;;;;;;;5032872;28;20532;-67
2021/05/17 04:01:42;;;;;;;15.90;14.30;;;;;;;;;;5034341;28;20453;-66
2021/05/17 04:04:09;;;;;;;15.90;14.40;;;;;;;;;;5033383;28;20468;-64
2021/05/17 04:06:43;;;;;;;16.53;15.13;;;;;;;;;;5033882;28;20514;-67
2021/05/17 04:14:40;;;;;;;16.90;15.30;;;;;;;;;;5033844;28;20404;-66
2021/05/17 04:17:06;;;;;;;17.30;15.60;;;;;;;;;;5025340;28;21059;-67
2021/05/17 04:19:33;;;;;;;16.40;15.10;;;;;;;;;;5033793;28;20514;-66
2021/05/17 04:22:00;;;;;;;15.07;13.90;;;;;;;;;;5033328;28;20461;-66
2021/05/17 04:24:26;;;;;;;16.80;15.10;;;;;;;;;;5033560;28;20449;-67
2021/05/17 04:26:53;;;;;;;14.73;13.57;;;;;;;;;;5033242;28;20465;-67
2021/05/17 04:29:20;;;;;;;15.23;13.83;;;;;;;;;;5033470;28;20944;-66
2021/05/17 04:31:47;;;;;;;16.07;14.67;;;;;;;;;;5033305;28;20776;-66
2021/05/17 04:34:14;;;;;;;15.27;14.07;;;;;;;;;;5033537;28;20543;-67
2021/05/17 04:36:41;;;;;;;15.00;13.90;;;;;;;;;;5026174;28;20480;-67
2021/05/17 04:39:07;;;;;;;16.77;15.27;;;;;;;;;;5025407;28;20467;-67
2021/05/17 04:41:34;;;;;;;14.77;13.57;;;;;;;;;;5020651;28;20976;-67
2021/05/17 04:44:00;;;;;;;15.40;14.30;;;;;;;;;;5024137;28;20452;-67
2021/05/17 04:46:28;;;;;;;14.63;13.50;;;;;;;;;;5021495;28;20988;-67
2021/05/17 04:48:55;;;;;;;16.00;14.60;;;;;;;;;;5022386;28;20456;-67
2021/05/17 04:51:22;;;;;;;15.10;13.53;;;;;;;;;;5024382;28;20457;-67
2021/05/17 04:53:48;;;;;;;13.90;13.00;;;;;;;;;;5033875;28;20506;-67
2021/05/17 04:56:15;;;;;;;14.27;13.17;;;;;;;;;;5032219;28;20484;-67
2021/05/17 04:58:42;;;;;;;12.00;11.20;;;;;;;;;;5076607;23;20511;-66
2021/05/17 05:01:09;;;;;;;11.90;11.10;;;;;;;;;;5050160;28;20852;-67
2021/05/17 05:03:36;;;;;;;12.67;11.67;;;;;;;;;;5049198;28;20450;-68
2021/05/17 05:06:03;;;;;;;12.33;11.37;;;;;;;;;;5052027;28;20538;-67
2021/05/17 05:08:30;;;;;;;13.70;12.70;;;;;;;;;;5037713;28;20854;-67
2021/05/17 05:10:57;;;;;;;11.13;10.33;;;;;;;;;;5028039;28;21043;-68
2021/05/17 05:13:23;;;;;;;11.90;11.00;;;;;;;;;;5012939;28;20472;-66
2021/05/17 05:15:51;;;;;;;11.50;10.70;;;;;;;;;;5021050;28;20456;-66
2021/05/17 05:18:18;;;;;;;11.93;11.13;;;;;;;;;;5032228;28;20480;-68
2021/05/17 05:20:46;;;;;;;8.83;7.13;;;;;;;;;;5031926;28;20448;-69
2021/05/17 05:23:12;;;;;;;7.30;6.60;;;;;;;;;;5032654;28;20453;-68
2021/05/17 05:25:58;;;;;;;7.50;7.00;;;;;;;;;;5031961;28;20461;-68
2021/05/17 05:28:28;;;;;;;8.00;7.20;;;;;;;;;;5032606;28;20476;-69
2021/05/17 05:30:58;;;;;;;8.30;7.70;;;;;;;;;;5032196;28;20463;-68
2021/05/17 05:33:26;;;;;;;7.83;7.23;;;;;;;;;;5031510;28;20452;-68
2021/05/17 05:35:53;;;;;;;7.93;7.43;;;;;;;;;;5021959;28;20485;-68
2021/05/17 05:38:20;;;;;;;6.93;6.43;;;;;;;;;;5031315;28;20490;-66
2021/05/17 05:40:47;;;;;;;6.90;6.40;;;;;;;;;;5032209;28;20457;-66
2021/05/17 05:43:13;;;;;;;5.93;5.53;;;;;;;;;;5032343;28;20449;-68
2021/05/17 05:45:44;;;;;;;5.97;5.47;;;;;;;;;;5031524;28;20448;-68
2021/05/17 05:48:11;;;;;;;5.40;4.23;;;;;;;;;;5031887;28;20476;-66
2021/05/17 05:50:39;;;;;;;4.50;4.20;;;;;;;;;;5032025;28;20459;-66
2021/05/17 05:53:06;;;;;;;4.30;4.00;;;;;;;;;;5032098;28;20935;-68
2021/05/17 05:55:33;;;;;;;4.60;4.10;;;;;;;;;;5031339;28;20452;-68
2021/05/17 05:57:59;;;;;;;3.70;3.40;;;;;;;;;;5031998;28;20489;-64
2021/05/17 06:00:30;;;;;;;4.73;4.23;;;;;;;;;;5026421;28;20465;-66
2021/05/17 06:02:56;;;;;;;7.00;4.57;;;;;;;;;;5025463;28;20464;-69
2021/05/17 06:05:23;;;;;;;4.20;3.90;;;;;;;;;;5031871;28;20460;-67
2021/05/17 06:07:50;;;;;;;4.27;3.87;;;;;;;;;;5030886;28;21006;-69
2021/05/17 06:10:18;;;;;;;4.37;3.97;;;;;;;;;;5030191;28;20950;-69
2021/05/17 06:12:46;;;;;;;4.03;3.63;;;;;;;;;;5031910;28;20452;-66
2021/05/17 06:15:14;;;;;;;4.00;3.50;;;;;;;;;;5031543;28;20453;-70
2021/05/17 06:17:41;;;;;;;3.80;3.10;;;;;;;;;;5031828;28;20481;-69
2021/05/17 06:20:09;;;;;;;3.90;3.57;;;;;;;;;;5031328;28;20476;-67
2021/05/17 06:22:37;;;;;;;5.37;3.20;;;;;;;;;;5031510;28;20532;-69
2021/05/17 06:25:04;;;;;;;5.40;4.53;;;;;;;;;;5031938;28;20472;-69
2021/05/17 06:27:32;;;;;;;6.83;4.70;;;;;;;;;;5022474;28;20479;-67
2021/05/17 06:29:59;;;;;;;3.83;3.40;;;;;;;;;;5031796;28;20962;-66
2021/05/17 06:32:26;;;;;;;7.87;3.53;;;;;;;;;;5030673;28;20860;-68
2021/05/17 06:34:53;;;;;;;5.20;3.97;;;;;;;;;;5031603;28;20559;-68
2021/05/17 06:37:20;;;;;;;3.40;3.10;;;;;;;;;;5027351;28;20488;-69
2021/05/17 06:39:47;;;;;;;4.23;3.83;;;;;;;;;;5030166;28;20478;-68
2021/05/17 06:42:14;;;;;;;4.67;3.40;;;;;;;;;;5030551;28;20495;-69
2021/05/17 06:44:42;;;;;;;11.60;4.27;;;;;;;;;;5019262;28;20458;-64
2021/05/17 06:47:10;;;;;;;6.40;4.27;;;;;;;;;;5013868;28;21064;-65
2021/05/17 06:49:36;;;;;;;5.33;4.07;;;;;;;;;;5031466;28;20452;-73
2021/05/17 06:52:03;;;;;;;6.10;4.97;;;;;;;;;;5024308;28;20547;-73
2021/05/17 06:54:30;;;;;;;6.43;5.10;;;;;;;;;;5030729;28;20944;-72
2021/05/17 06:57:05;;;;;;;4.90;4.20;;;;;;;;;;5031499;28;20512;-70
2021/05/17 06:59:41;;;;;;;5.20;4.70;;;;;;;;;;5024650;28;20460;-68
2021/05/17 07:02:10;;;;;;;9.40;3.67;;;;;;;;;;5030975;28;20520;-68
2021/05/17 07:04:38;;;;;;;4.70;3.70;;;;;;;;;;5031074;28;20943;-67
2021/05/17 07:07:07;;;;;;;8.70;5.00;;;;;;;;;;5024103;28;20442;-67
2021/05/17 07:12:19;;;;;;;7.50;4.10;;;;;;;;;;5029878;28;20787;-68
2021/05/17 07:14:45;;;;;;;5.60;3.63;;;;;;;;;;5016571;28;20449;-66
2021/05/17 07:17:13;;;;;;;11.10;3.93;;;;;;;;;;5016726;28;20488;-66
2021/05/17 07:19:39;;;;;;;5.47;4.83;;;;;;;;;;5029225;28;20456;-66
2021/05/17 07:24:51;;;;;;;4.07;3.67;;;;;;;;;;5029435;28;20424;-68
2021/05/17 07:27:18;;;;;;;4.67;3.53;;;;;;;;;;5023684;28;20465;-67
2021/05/17 07:29:44;;;;;;;7.03;3.63;;;;;;;;;;5029102;28;20457;-67
2021/05/17 07:32:11;;;;;;;4.77;3.90;;;;;;;;;;5030052;28;20453;-66
2021/05/17 07:34:40;;;;;;;5.97;3.50;;;;;;;;;;5029136;28;20495;-66
2021/05/17 07:37:07;;;;;;;3.60;3.00;;;;;;;;;;5028426;28;20480;-67
2021/05/17 07:39:33;;;;;;;4.40;3.30;;;;;;;;;;5030244;28;20539;-68
2021/05/17 07:42:00;;;;;;;5.87;4.07;;;;;;;;;;5027686;28;21061;-68
2021/05/17 07:44:27;;;;;;;5.53;2.90;;;;;;;;;;5019127;28;20535;-67
2021/05/17 07:46:54;;;;;;;3.53;2.83;;;;;;;;;;5032179;28;20462;-68
2021/05/17 07:49:23;;;;;;;3.10;2.80;;;;;;;;;;5033256;28;21003;-66
2021/05/17 07:51:50;;;;;;;4.13;2.70;;;;;;;;;;5033273;28;20448;-68
2021/05/17 07:54:19;;;;;;;4.53;2.90;;;;;;;;;;5032768;28;20818;-66
2021/05/17 07:56:46;;;;;;;3.50;2.63;;;;;;;;;;5032991;28;20494;-68
2021/05/17 07:59:12;;;;;;;3.83;2.60;;;;;;;;;;5032299;28;20463;-68
2021/05/17 08:01:39;;;;;;;3.37;2.00;;;;;;;;;;5033222;28;20452;-67
2021/05/17 08:04:06;;;;;;;3.23;2.57;;;;;;;;;;5033037;28;20453;-68
2021/05/17 08:06:32;;;;;;;3.37;2.70;;;;;;;;;;5031920;28;20452;-68
2021/05/17 08:09:00;;;;;;;2.50;2.30;;;;;;;;;;5032795;28;20469;-68
2021/05/17 08:11:26;;;;;;;3.00;2.40;;;;;;;;;;5032370;28;21081;-69
2021/05/17 08:13:53;;;;;;;3.30;2.30;;;;;;;;;;5032972;28;20453;-68
2021/05/17 08:16:20;;;;;;;5.53;2.67;;;;;;;;;;5032579;28;20492;-66
2021/05/17 08:18:46;;;;;;;3.27;2.20;;;;;;;;;;5033288;28;20492;-68
2021/05/17 08:21:13;;;;;;;3.07;2.57;;;;;;;;;;5026333;28;20472;-64
2021/05/17 08:23:40;;;;;;;3.77;2.97;;;;;;;;;;5013106;28;20536;-66
2021/05/17 08:26:08;;;;;;;3.63;2.90;;;;;;;;;;5021894;28;20471;-70
2021/05/17 08:28:35;;;;;;;7.07;5.43;;;;;;;;;;5033006;28;20461;-68
2021/05/17 08:31:02;;;;;;;6.63;6.03;;;;;;;;;;5033029;28;20452;-67
2021/05/17 08:33:30;;;;;;;7.07;6.37;;;;;;;;;;5032770;28;20456;-69
2021/05/17 08:35:56;;;;;;;7.07;5.90;;;;;;;;;;5032406;28;20444;-69
2021/05/17 08:38:23;;;;;;;9.03;5.97;;;;;;;;;;5032730;28;20856;-69
2021/05/17 08:40:49;;;;;;;5.73;5.23;;;;;;;;;;5031545;28;20456;-67
2021/05/17 08:43:17;;;;;;;10.63;6.13;;;;;;;;;;5033127;28;20492;-68
2021/05/17 08:45:45;;;;;;;5.13;4.60;;;;;;;;;;5032273;28;20532;-67
2021/05/17 08:48:12;;;;;;;5.90;5.40;;;;;;;;;;5032272;28;20511;-68
2021/05/17 08:50:38;;;;;;;6.13;5.00;;;;;;;;;;5032437;28;20457;-68
2021/05/17 08:53:05;;;;;;;9.00;5.40;;;;;;;;;;5031506;28;20459;-69
2021/05/17 08:55:32;;;;;;;5.17;4.67;;;;;;;;;;5032138;28;20489;-68
2021/05/17 08:57:59;;;;;;;2.60;2.27;;;;;;;;;;5031349;28;20520;-68
2021/05/17 09:00:26;;;;;;;3.30;2.40;;;;;;;;;;5031587;28;20460;-71
2021/05/17 09:02:53;;;;;;;3.33;2.57;;;;;;;;;;5029763;28;20466;-68
2021/05/17 09:05:21;;;;;;;5.07;2.60;;;;;;;;;;5032282;28;20514;-68
2021/05/17 09:07:48;;;;;;;6.90;2.17;;;;;;;;;;5031364;28;20468;-68
2021/05/17 09:10:17;;;;;;;5.97;2.30;;;;;;;;;;5031379;28;20557;-68
2021/05/17 09:12:54;;;;;;;4.70;2.07;;;;;;;;;;5032204;28;20449;-68
2021/05/17 09:15:28;;;;;;;3.80;2.23;;;;;;;;;;5030581;28;20850;-68
2021/05/17 09:17:55;;;;;;;3.53;1.87;;;;;;;;;;5032079;28;20484;-66
2021/05/17 09:20:31;;;;;;;4.60;2.10;;;;;;;;;;5031739;28;20546;-68
2021/05/17 09:23:17;;;;;;;5.77;2.00;;;;;;;;;;5014054;28;20468;-68
2021/05/17 09:26:00;;;;;;;5.20;2.17;;;;;;;;;;5027431;28;20456;-68
2021/05/17 09:28:28;;;;;;;3.33;2.40;;;;;;;;;;5016306;28;20472;-67
2021/05/17 09:31:02;;;;;;;2.70;2.10;;;;;;;;;;5033014;28;20522;-69
2021/05/17 09:33:29;;;;;;;3.00;1.70;;;;;;;;;;5019411;28;20498;-68
2021/05/17 09:35:56;;;;;;;2.83;1.93;;;;;;;;;;5013009;28;20461;-68
2021/05/17 09:38:23;;;;;;;3.10;1.90;;;;;;;;;;5025830;28;20538;-68
2021/05/17 09:41:03;;;;;;;2.73;1.70;;;;;;;;;;5031782;28;21030;-68
2021/05/17 09:43:30;;;;;;;3.23;2.17;;;;;;;;;;5029793;28;20948;-67
2021/05/17 09:45:58;;;;;;;3.17;2.23;;;;;;;;;;5029557;28;20457;-67
2021/05/17 09:48:26;;;;;;;3.20;2.17;;;;;;;;;;5030533;28;20646;-67
2021/05/17 09:51:00;;;;;;;6.40;2.50;;;;;;;;;;5030829;28;20535;-67
2021/05/17 09:53:27;;;;;;;3.43;2.43;;;;;;;;;;5031619;28;20441;-67
2021/05/17 09:55:54;;;;;;;4.90;3.13;;;;;;;;;;5030980;28;20444;-67
2021/05/17 09:58:34;;;;;;;4.27;3.13;;;;;;;;;;5030729;28;20499;-66
2021/05/17 10:01:05;;;;;;;3.87;3.47;;;;;;;;;;5030134;28;20464;-66
2021/05/17 10:03:34;;;;;;;4.17;3.30;;;;;;;;;;5030011;28;21025;-67
2021/05/17 10:06:00;;;;;;;3.93;3.23;;;;;;;;;;5028045;28;20452;-67
2021/05/17 10:08:27;;;;;;;4.57;3.40;;;;;;;;;;5030565;28;20883;-66
2021/05/17 10:10:54;;;;;;;4.87;3.63;;;;;;;;;;5030953;28;20960;-66
2021/05/17 10:13:21;;;;;;;4.03;3.60;;;;;;;;;;5030055;28;20483;-66
2021/05/17 10:15:48;;;;;;;3.90;3.50;;;;;;;;;;5031191;28;20449;-68
2021/05/17 10:18:16;;;;;;;4.80;3.47;;;;;;;;;;5030252;28;20736;-68
2021/05/17 10:20:43;;;;;;;5.00;4.17;;;;;;;;;;5031125;28;20456;-66
2021/05/17 10:23:13;;;;;;;4.60;4.20;;;;;;;;;;5031015;28;20449;-65
2021/05/17 10:25:40;;;;;;;4.80;3.57;;;;;;;;;;5031035;28;20460;-67
2021/05/17 10:28:08;;;;;;;4.17;3.77;;;;;;;;;;5030526;28;20475;-67
2021/05/17 10:30:37;;;;;;;4.93;3.97;;;;;;;;;;5032353;28;20444;-66
2021/05/17 10:33:04;;;;;;;5.90;3.77;;;;;;;;;;5030717;28;20460;-67
2021/05/17 10:35:32;;;;;;;5.93;3.93;;;;;;;;;;5030673;28;20448;-65
2021/05/17 10:38:16;;;;;;;4.20;3.80;;;;;;;;;;5035119;28;20498;-66
2021/05/17 10:40:46;;;;;;;2.60;1.80;;;;;;;;;;5031091;28;20459;-66
2021/05/17 10:43:19;;;;;;;5.13;3.80;;;;;;;;;;5029665;28;20811;-67
2021/05/17 10:48:33;;;;;;;3.87;3.47;;;;;;;;;;5021015;28;20457;-67
2021/05/17 10:51:11;;;;;;;7.47;4.00;;;;;;;;;;5010951;28;20826;-69
2021/05/17 10:53:45;;;;;;;4.97;3.83;;;;;;;;;;5031114;28;20460;-69
2021/05/17 10:56:13;;;;;;;4.90;3.57;;;;;;;;;;5030594;28;20539;-68
2021/05/17 11:01:49;;;;;;;3.93;3.00;;;;;;;;;;5044605;28;20423;-69
2021/05/17 11:04:31;;;;;;;3.87;3.47;;;;;;;;;;5052354;28;20958;-69
2021/05/17 11:07:15;;;;;;;3.70;2.53;;;;;;;;;;5036615;28;20447;-69
2021/05/17 11:09:42;;;;;;;1.93;1.80;;;;;;;;;;5032912;28;20921;-68
2021/05/17 11:12:20;;;;;;;3.07;2.37;;;;;;;;;;5032885;28;20453;-68
2021/05/17 11:15:01;;;;;;;2.90;2.30;;;;;;;;;;5033080;28;20475;-68
2021/05/17 11:17:28;;;;;;;4.47;3.97;;;;;;;;;;5037882;28;20518;-69
2021/05/17 11:19:56;;;;;;;5.03;4.53;;;;;;;;;;5053974;28;20443;-69
2021/05/17 11:22:43;;;;;;;5.07;4.57;;;;;;;;;;5057728;28;20582;-68
2021/05/17 11:25:10;;;;;;;13.23;6.97;;;;;;;;;;5056962;28;20450;-69
2021/05/17 11:27:46;;;;;;;10.03;7.20;;;;;;;;;;5053188;28;20461;-69
2021/05/17 11:30:31;;;;;;;9.50;8.50;;;;;;;;;;5046522;28;20451;-70
2021/05/17 11:33:11;;;;;;;6.60;6.10;;;;;;;;;;5029848;28;20492;-70
2021/05/17 11:35:38;;;;;;;7.30;6.90;;;;;;;;;;5035030;28;20444;-69
2021/05/17 11:38:09;;;;;;;6.37;6.00;;;;;;;;;;5036208;28;20499;-69
2021/05/17 11:40:37;;;;;;;6.73;6.23;;;;;;;;;;5037281;28;20515;-68
2021/05/17 11:43:03;;;;;;;7.60;7.10;;;;;;;;;;5036008;28;20452;-68
2021/05/17 11:45:36;;;;;;;7.77;7.17;;;;;;;;;;5035027;28;20452;-68
2021/05/17 11:48:02;;;;;;;7.93;7.50;;;;;;;;;;5032334;28;20483;-69
2021/05/17 11:50:29;;;;;;;7.23;6.83;;;;;;;;;;5034316;28;20705;-69
2021/05/17 11:52:57;;;;;;;7.80;7.20;;;;;;;;;;5038066;28;20868;-69
2021/05/17 11:55:24;;;;;;;5.47;4.47;;;;;;;;;;5038398;28;20502;-69
2021/05/17 11:57:52;;;;;;;3.47;3.17;;;;;;;;;;5037223;28;20484;-68
2021/05/17 12:00:24;;;;;;;2.80;2.50;;;;;;;;;;5041531;28;20452;-68
2021/05/17 12:02:52;;;;;;;2.90;2.10;;;;;;;;;;5051588;28;20483;-70
2021/05/17 12:05:19;;;;;;;3.03;2.83;;;;;;;;;;5047614;28;20457;-69
2021/05/17 12:07:46;;;;;;;4.03;2.73;;;;;;;;;;5050109;28;20524;-68
2021/05/17 12:10:14;;;;;;;3.43;2.53;;;;;;;;;;5054196;28;20452;-66
2021/05/17 12:12:41;;;;;;;3.53;2.33;;;;;;;;;;5053434;28;20763;-69
2021/05/17 12:15:11;;;;;;;3.00;2.00;;;;;;;;;;5055638;28;20475;-69
2021/05/17 12:17:38;;;;;;;2.40;2.20;;;;;;;;;;5057538;28;20465;-71
2021/05/17 12:20:05;;;;;;;3.30;2.90;;;;;;;;;;5056603;28;20520;-69
2021/05/17 12:22:34;;;;;;;4.63;3.07;;;;;;;;;;5039192;28;20452;-68
2021/05/17 12:25:02;;;;;;;3.00;2.80;;;;;;;;;;5032351;28;20471;-68
2021/05/17 12:27:29;;;;;;;3.37;3.10;;;;;;;;;;5015832;28;20465;-68
2021/05/17 12:30:01;;;;;;;3.37;3.07;;;;;;;;;;5015602;28;20450;-68
2021/05/17 12:32:38;;;;;;;3.73;3.43;;;;;;;;;;5033334;28;20947;-68
2021/05/17 12:35:05;;;;;;;3.97;3.63;;;;;;;;;;5034208;28;20440;-68
2021/05/17 12:37:33;;;;;;;3.73;3.43;;;;;;;;;;5034560;28;20579;-68
2021/05/17 12:40:14;;;;;;;3.70;3.07;;;;;;;;;;5034016;28;20445;-68
2021/05/17 12:42:42;;;;;;;2.77;2.57;;;;;;;;;;5034129;28;20488;-68
2021/05/17 12:45:12;;;;;;;2.90;2.63;;;;;;;;;;5033682;28;20457;-68
2021/05/17 12:47:39;;;;;;;3.77;2.50;;;;;;;;;;5034181;28;20469;-68
2021/05/17 12:50:06;;;;;;;2.57;2.30;;;;;;;;;;5034079;28;20502;-68
2021/05/17 12:52:36;;;;;;;2.70;2.30;;;;;;;;;;5034248;28;20457;-68
2021/05/17 12:55:16;;;;;;;2.63;1.87;;;;;;;;;;5034579;28;20464;-68
2021/05/17 12:57:48;;;;;;;1.47;1.20;;;;;;;;;;5034573;28;20493;-69
2021/05/17 13:00:17;;;;;;;5.07;1.70;;;;;;;;;;5034629;28;20790;-69
2021/05/17 13:03:01;;;;;;;1.53;1.17;;;;;;;;;;5034267;28;20465;-69
2021/05/17 13:05:28;;;;;;;2.27;2.07;;;;;;;;;;5034345;28;20452;-69
2021/05/17 13:08:02;;;;;;;2.70;1.80;;;;;;;;;;5034301;28;20833;-68
2021/05/17 13:10:28;;;;;;;1.77;1.67;;;;;;;;;;5034054;28;20994;-70
2021/05/17 13:12:55;;;;;;;2.00;1.90;;;;;;;;;;5025845;28;20454;-68
2021/05/17 13:15:23;;;;;;;2.07;1.87;;;;;;;;;;5014347;28;20817;-69
2021/05/17 13:17:56;;;;;;;2.57;1.87;;;;;;;;;;5013807;28;20485;-68
2021/05/17 13:20:27;;;;;;;1.90;1.70;;;;;;;;;;5014434;28;20497;-69
2021/05/17 13:23:20;;;;;;;2.60;2.20;;;;;;;;;;5014170;28;20492;-69
2021/05/17 13:31:23;;;;;;;6.10;3.73;;;;;;;;;;5013618;28;20452;-68
2021/05/17 13:33:50;;;;;;;2.30;2.10;;;;;;;;;;5013631;28;20483;-68
2021/05/17 13:36:18;;;;;;;4.53;2.67;;;;;;;;;;5012991;28;20457;-68
2021/05/17 13:38:46;;;;;;;2.90;2.63;;;;;;;;;;5013230;28;20842;-68
2021/05/17 13:41:13;;;;;;;2.90;2.70;;;;;;;;;;5012405;28;20464;-68
2021/05/17 13:43:40;;;;;;;2.67;2.47;;;;;;;;;;5013525;28;20457;-68
2021/05/17 13:46:07;;;;;;;2.60;2.40;;;;;;;;;;5013390;28;20453;-68
2021/05/17 13:48:35;;;;;;;3.20;2.90;;;;;;;;;;5013885;28;20847;-68
2021/05/17 13:51:03;;;;;;;2.53;2.33;;;;;;;;;;5013282;28;20457;-68
2021/05/17 13:53:29;;;;;;;2.83;2.60;;;;;;;;;;5013013;28;20955;-68
2021/05/17 13:55:56;;;;;;;2.90;2.70;;;;;;;;;;5012871;28;20445;-68
2021/05/17 13:58:22;;;;;;;4.33;2.90;;;;;;;;;;5013021;28;20912;-68
2021/05/17 14:00:49;;;;;;;3.40;3.10;;;;;;;;;;5018098;28;20448;-68
2021/05/17 14:03:16;;;;;;;3.60;3.03;;;;;;;;;;5033063;28;20535;-68
2021/05/17 14:05:44;;;;;;;4.00;2.90;;;;;;;;;;5032684;28;20499;-68
2021/05/17 14:08:10;;;;;;;3.20;3.00;;;;;;;;;;5032330;28;20508;-68
2021/05/17 14:10:37;;;;;;;3.23;2.80;;;;;;;;;;5032486;28;20449;-68
2021/05/17 14:13:03;;;;;;;3.50;3.20;;;;;;;;;;5032291;28;20450;-68
2021/05/17 14:15:30;;;;;;;3.23;3.03;;;;;;;;;;5031929;28;20448;-68
2021/05/17 14:17:57;;;;;;;3.30;3.00;;;;;;;;;;5032267;28;20523;-68
2021/05/17 14:20:23;;;;;;;3.57;3.27;;;;;;;;;;5031952;28;20965;-68
2021/05/17 14:22:53;;;;;;;3.50;3.20;;;;;;;;;;5031892;28;20657;-68
2021/05/17 14:25:20;;;;;;;3.60;3.30;;;;;;;;;;5032130;28;20861;-68
2021/05/17 14:27:47;;;;;;;3.53;3.03;;;;;;;;;;5031821;28;20929;-68
2021/05/17 14:30:16;;;;;;;3.93;3.63;;;;;;;;;;5032291;28;20817;-68
2021/05/17 14:32:43;;;;;;;3.90;3.60;;;;;;;;;;5032077;28;20448;-68
2021/05/17 14:35:10;;;;;;;5.40;3.60;;;;;;;;;;5032367;28;20492;-68
2021/05/17 14:37:37;;;;;;;4.30;4.00;;;;;;;;;;5031883;28;20488;-68
2021/05/17 14:40:05;;;;;;;4.10;3.80;;;;;;;;;;5031895;28;20459;-68
2021/05/17 14:42:32;;;;;;;5.07;4.27;;;;;;;;;;5031903;28;20848;-68
2021/05/17 14:44:59;;;;;;;4.43;4.13;;;;;;;;;;5031978;28;20444;-68
2021/05/17 14:47:25;;;;;;;4.43;4.13;;;;;;;;;;5031442;28;20939;-68
2021/05/17 14:49:52;;;;;;;4.10;3.80;;;;;;;;;;5031982;28;20452;-68
2021/05/17 14:52:20;;;;;;;4.33;4.00;;;;;;;;;;5032677;28;20502;-68
2021/05/17 14:54:48;;;;;;;4.30;4.00;;;;;;;;;;5036135;28;20812;-67
2021/05/17 14:57:15;;;;;;;4.37;3.97;;;;;;;;;;5035235;28;20991;-67
2021/05/17 14:59:42;;;;;;;4.57;4.17;;;;;;;;;;5035410;28;20480;-68
2021/05/17 15:02:09;;;;;;;4.90;4.53;;;;;;;;;;5034169;28;20452;-67
2021/05/17 15:04:36;;;;;;;4.90;4.60;;;;;;;;;;5031634;28;20469;-68